Time,TemperatureF,DewpointF,PressureIn,WindDirection,WindDirectionDegrees,WindSpeedMPH,WindSpeedGustMPH,Humidity,HourlyPrecipIn,Conditions,Clouds,dailyrainin,SoftwareType,DateUTC
2013-05-18 00:01:00,71.0,33.4,29.99,SSE,158,0.0,0.0,25,0.00,,SKC,0.00,VWS V14.01,2013-05-18 07:01:00,
2013-05-18 00:06:00,71.0,33.4,29.99,SSW,202,0.0,0.0,25,0.00,,SKC,0.00,VWS V14.01,2013-05-18 07:06:00,
2013-05-18 00:11:00,71.0,33.4,29.99,SSW,202,0.0,0.0,25,0.00,,SKC,0.00,VWS V14.01,2013-05-18 07:11:00,
2013-05-18 00:16:00,71.0,33.4,29.98,SSW,202,0.0,0.0,25,0.00,,SKC,0.00,VWS V14.01,2013-05-18 07:16:00,
2013-05-18 00:21:00,71.0,33.4,29.98,South,180,0.0,1.0,25,0.00,,SKC,0.00,VWS V14.01,2013-05-18 07:21:00,
2013-05-18 00:26:00,71.0,33.4,29.98,SW,225,0.0,0.0,25,0.00,,SKC,0.00,VWS V14.01,2013-05-18 07:26:00,
2013-05-18 00:31:00,72.0,34.3,29.98,SSE,158,5.0,5.0,25,0.00,,SKC,0.00,VWS V14.01,2013-05-18 07:31:00,
2013-05-18 00:37:00,72.0,34.3,29.98,South,180,2.0,5.0,25,0.00,,SKC,0.00,VWS V14.01,2013-05-18 07:37:00,
2013-05-18 00:43:00,72.0,33.3,29.98,SSE,158,1.0,1.0,24,0.00,,SKC,0.00,VWS V14.01,2013-05-18 07:43:00,
2013-05-18 00:49:00,72.0,33.3,29.98,SSE,158,5.0,5.0,24,0.00,,SKC,0.00,VWS V14.01,2013-05-18 07:49:00,
2013-05-18 00:54:00,72.0,32.2,29.98,SSE,158,3.0,3.0,23,0.00,,SKC,0.00,VWS V14.01,2013-05-18 07:54:00,
2013-05-18 00:59:00,72.0,32.2,29.98,SSE,158,4.0,5.0,23,0.00,,SKC,0.00,VWS V14.01,2013-05-18 07:59:00,
2013-05-18 01:04:00,72.0,32.2,29.98,SSE,158,5.0,5.0,23,0.00,,SKC,0.00,VWS V14.01,2013-05-18 08:04:00,
2013-05-18 01:09:00,73.0,33.0,29.98,South,180,3.0,3.0,23,0.00,,SKC,0.00,VWS V14.01,2013-05-18 08:09:00,
2013-05-18 01:15:00,72.0,31.1,29.98,WSW,248,4.0,5.0,22,0.00,,SKC,0.00,VWS V14.01,2013-05-18 08:15:00,
2013-05-18 01:21:00,72.0,31.1,29.98,South,180,3.0,4.0,22,0.00,,SKC,0.00,VWS V14.01,2013-05-18 08:21:00,
2013-05-18 01:27:00,72.0,31.1,29.98,SSE,158,4.0,4.0,22,0.00,,SKC,0.00,VWS V14.01,2013-05-18 08:27:00,
2013-05-18 01:32:00,72.0,31.1,29.98,SSE,158,5.0,5.0,22,0.00,,SKC,0.00,VWS V14.01,2013-05-18 08:32:00,
2013-05-18 01:37:00,72.0,31.1,29.98,SSE,158,5.0,5.0,22,0.00,,SKC,0.00,VWS V14.01,2013-05-18 08:37:00,
2013-05-18 01:42:00,72.0,31.1,29.98,South,180,2.0,3.0,22,0.00,,SKC,0.00,VWS V14.01,2013-05-18 08:42:00,
2013-05-18 01:47:00,71.0,31.4,29.98,West,270,4.0,5.0,23,0.00,,SKC,0.00,VWS V14.01,2013-05-18 08:47:00,
2013-05-18 01:53:00,71.0,31.4,29.98,WSW,248,5.0,6.0,23,0.00,,SKC,0.00,VWS V14.01,2013-05-18 08:53:00,
2013-05-18 01:59:00,70.0,31.6,29.98,WSW,248,4.0,5.0,24,0.00,,SKC,0.00,VWS V14.01,2013-05-18 08:59:00,
2013-05-18 02:04:00,71.0,31.4,29.98,West,270,5.0,6.0,23,0.00,,SKC,0.00,VWS V14.01,2013-05-18 09:04:00,
2013-05-18 02:09:00,71.0,30.3,29.98,WSW,248,6.0,6.0,22,0.00,,SKC,0.00,VWS V14.01,2013-05-18 09:09:00,
2013-05-18 02:14:00,71.0,30.3,29.98,SW,225,5.0,6.0,22,0.00,,SKC,0.00,VWS V14.01,2013-05-18 09:14:00,
2013-05-18 02:19:00,71.0,30.3,29.97,WSW,248,5.0,6.0,22,0.00,,SKC,0.00,VWS V14.01,2013-05-18 09:19:00,
2013-05-18 02:24:00,71.0,30.3,29.97,SW,225,5.0,5.0,22,0.00,,SKC,0.00,VWS V14.01,2013-05-18 09:24:00,
2013-05-18 02:30:00,71.0,30.3,29.97,SW,225,6.0,6.0,22,0.00,,SKC,0.00,VWS V14.01,2013-05-18 09:30:00,
2013-05-18 02:35:00,72.0,31.1,29.97,WSW,248,3.0,3.0,22,0.00,,SKC,0.00,VWS V14.01,2013-05-18 09:35:00,
2013-05-18 02:40:00,72.0,31.1,29.97,SW,225,1.0,1.0,22,0.00,,SKC,0.00,VWS V14.01,2013-05-18 09:40:00,
2013-05-18 02:45:00,72.0,31.1,29.97,SSW,202,1.0,2.0,22,0.00,,SKC,0.00,VWS V14.01,2013-05-18 09:45:00,
2013-05-18 02:50:00,71.0,30.3,29.97,SSW,202,1.0,2.0,22,0.00,,SKC,0.00,VWS V14.01,2013-05-18 09:50:00,
2013-05-18 02:56:00,71.0,30.3,29.97,SSE,158,2.0,3.0,22,0.00,,SKC,0.00,VWS V14.01,2013-05-18 09:56:00,
2013-05-18 03:02:00,71.0,30.3,29.97,South,180,3.0,3.0,22,0.00,,SKC,0.00,VWS V14.01,2013-05-18 10:02:00,
2013-05-18 03:08:00,71.0,30.3,29.96,South,180,1.0,1.0,22,0.00,,SKC,0.00,VWS V14.01,2013-05-18 10:08:00,
2013-05-18 03:14:00,71.0,30.3,29.96,South,180,5.0,6.0,22,0.00,,SKC,0.00,VWS V14.01,2013-05-18 10:14:00,
2013-05-18 03:20:00,71.0,30.3,29.97,South,180,3.0,5.0,22,0.00,,SKC,0.00,VWS V14.01,2013-05-18 10:20:00,
2013-05-18 03:25:00,72.0,30.0,29.96,South,180,5.0,5.0,21,0.00,,SKC,0.00,VWS V14.01,2013-05-18 10:25:00,
2013-05-18 03:31:00,72.0,30.0,29.96,South,180,3.0,4.0,21,0.00,,SKC,0.00,VWS V14.01,2013-05-18 10:31:00,
2013-05-18 03:36:00,72.0,30.0,29.96,SSE,158,5.0,6.0,21,0.00,,SKC,0.00,VWS V14.01,2013-05-18 10:36:00,
2013-05-18 03:41:00,72.0,30.0,29.97,SSE,158,2.0,2.0,21,0.00,,SKC,0.00,VWS V14.01,2013-05-18 10:41:00,
2013-05-18 03:46:00,72.0,30.0,29.96,South,180,1.0,1.0,21,0.00,,SKC,0.00,VWS V14.01,2013-05-18 10:46:00,
2013-05-18 03:51:00,72.0,30.0,29.96,South,180,0.0,1.0,21,0.00,,SKC,0.00,VWS V14.01,2013-05-18 10:51:00,
2013-05-18 03:57:00,71.0,30.3,29.96,WSW,248,0.0,0.0,22,0.00,,SKC,0.00,VWS V14.01,2013-05-18 10:57:00,
2013-05-18 04:03:00,71.0,30.3,29.96,South,180,4.0,5.0,22,0.00,,SKC,0.00,VWS V14.01,2013-05-18 11:03:00,
2013-05-18 04:09:00,71.0,30.3,29.97,SW,225,4.0,7.0,22,0.00,,SKC,0.00,VWS V14.01,2013-05-18 11:09:00,
2013-05-18 04:15:00,72.0,31.1,29.96,SE,135,10.0,10.0,22,0.00,,SKC,0.00,VWS V14.01,2013-05-18 11:15:00,
2013-05-18 04:20:00,72.0,31.1,29.96,South,180,3.0,5.0,22,0.00,,SKC,0.00,VWS V14.01,2013-05-18 11:20:00,
2013-05-18 04:25:00,72.0,31.1,29.97,SSW,202,3.0,3.0,22,0.00,,SKC,0.00,VWS V14.01,2013-05-18 11:25:00,
2013-05-18 04:30:00,72.0,32.2,29.96,SE,135,0.0,0.0,23,0.00,,SKC,0.00,VWS V14.01,2013-05-18 11:30:00,
2013-05-18 04:35:00,71.0,31.4,29.97,SE,135,5.0,5.0,23,0.00,,SKC,0.00,VWS V14.01,2013-05-18 11:35:00,
2013-05-18 04:41:00,71.0,31.4,29.97,South,180,1.0,1.0,23,0.00,,SKC,0.00,VWS V14.01,2013-05-18 11:41:00,
2013-05-18 04:47:00,71.0,31.4,29.97,SW,225,0.0,0.0,23,0.00,,SKC,0.00,VWS V14.01,2013-05-18 11:47:00,
2013-05-18 04:52:00,70.0,31.6,29.97,WSW,248,1.0,1.0,24,0.00,,SKC,0.00,VWS V14.01,2013-05-18 11:52:00,
2013-05-18 04:57:00,70.0,31.6,29.98,WSW,248,1.0,1.0,24,0.00,,SKC,0.00,VWS V14.01,2013-05-18 11:57:00,
2013-05-18 05:02:00,70.0,31.6,29.97,WSW,248,3.0,3.0,24,0.00,,SKC,0.00,VWS V14.01,2013-05-18 12:02:00,
2013-05-18 05:07:00,70.0,31.6,29.97,SW,225,0.0,0.0,24,0.00,,SKC,0.00,VWS V14.01,2013-05-18 12:07:00,
2013-05-18 05:13:00,70.0,31.6,29.97,SW,225,1.0,1.0,24,0.00,,SKC,0.00,VWS V14.01,2013-05-18 12:13:00,
2013-05-18 05:19:00,70.0,31.6,29.97,South,180,0.0,0.0,24,0.00,,SKC,0.00,VWS V14.01,2013-05-18 12:19:00,
2013-05-18 05:25:00,69.0,30.7,29.97,South,180,2.0,2.0,24,0.00,,SKC,0.00,VWS V14.01,2013-05-18 12:25:00,
2013-05-18 05:31:00,69.0,30.7,29.98,SSW,202,0.0,0.0,24,0.00,,SKC,0.00,VWS V14.01,2013-05-18 12:31:00,
2013-05-18 05:37:00,69.0,31.8,29.98,South,180,0.0,0.0,25,0.00,,SKC,0.00,VWS V14.01,2013-05-18 12:37:00,
2013-05-18 05:43:00,69.0,31.8,29.98,SW,225,0.0,0.0,25,0.00,,SKC,0.00,VWS V14.01,2013-05-18 12:43:00,
2013-05-18 05:48:00,69.0,31.8,29.98,South,180,2.0,2.0,25,0.00,,SKC,0.00,VWS V14.01,2013-05-18 12:48:00,
2013-05-18 05:53:00,69.0,31.8,29.98,South,180,1.0,1.0,25,0.00,,SKC,0.00,VWS V14.01,2013-05-18 12:53:00,
2013-05-18 05:58:00,69.0,31.8,29.98,South,180,0.0,0.0,25,0.00,,SKC,0.00,VWS V14.01,2013-05-18 12:58:00,
2013-05-18 06:03:00,69.0,31.8,29.98,South,180,3.0,4.0,25,0.00,,SKC,0.00,VWS V14.01,2013-05-18 13:03:00,
2013-05-18 06:09:00,69.0,31.8,29.99,SW,225,0.0,1.0,25,0.00,,SKC,0.00,VWS V14.01,2013-05-18 13:09:00,
2013-05-18 06:15:00,69.0,32.7,29.99,West,270,6.0,7.0,26,0.00,,SKC,0.00,VWS V14.01,2013-05-18 13:15:00,
2013-05-18 06:20:00,68.0,32.8,29.99,West,270,6.0,6.0,27,0.00,,SKC,0.00,VWS V14.01,2013-05-18 13:20:00,
2013-05-18 06:25:00,68.0,32.8,29.99,WSW,248,6.0,6.0,27,0.00,,SKC,0.00,VWS V14.01,2013-05-18 13:25:00,
2013-05-18 06:30:00,68.0,32.8,29.99,WNW,292,6.0,6.0,27,0.00,,SKC,0.00,VWS V14.01,2013-05-18 13:30:00,
2013-05-18 06:35:00,68.0,33.7,30.00,West,270,5.0,6.0,28,0.00,,SKC,0.00,VWS V14.01,2013-05-18 13:35:00,
2013-05-18 06:40:00,69.0,33.7,30.00,WSW,248,7.0,8.0,27,0.00,,SKC,0.00,VWS V14.01,2013-05-18 13:40:00,
2013-05-18 06:46:00,69.0,33.7,30.00,West,270,8.0,8.0,27,0.00,,SKC,0.00,VWS V14.01,2013-05-18 13:46:00,
2013-05-18 06:52:00,70.0,32.6,30.00,WSW,248,5.0,5.0,25,0.00,,SKC,0.00,VWS V14.01,2013-05-18 13:52:00,
2013-05-18 06:58:00,70.0,31.6,30.00,WNW,292,4.0,5.0,24,0.00,,SKC,0.00,VWS V14.01,2013-05-18 13:58:00,
2013-05-18 07:04:00,70.0,29.4,30.00,WSW,248,6.0,8.0,22,0.00,,SKC,0.00,VWS V14.01,2013-05-18 14:04:00,
2013-05-18 07:10:00,71.0,29.1,30.00,West,270,6.0,8.0,21,0.00,,SKC,0.00,VWS V14.01,2013-05-18 14:10:00,
2013-05-18 07:15:00,71.0,29.1,30.01,WNW,292,4.0,4.0,21,0.00,,SKC,0.00,VWS V14.01,2013-05-18 14:15:00,
2013-05-18 07:20:00,71.0,29.1,30.01,WSW,248,5.0,7.0,21,0.00,,SKC,0.00,VWS V14.01,2013-05-18 14:20:00,
2013-05-18 07:25:00,71.0,28.0,30.01,WSW,248,5.0,5.0,20,0.00,,SKC,0.00,VWS V14.01,2013-05-18 14:25:00,
2013-05-18 07:30:00,71.0,28.0,30.01,WSW,248,6.0,7.0,20,0.00,,SKC,0.00,VWS V14.01,2013-05-18 14:30:00,
2013-05-18 07:35:00,71.0,28.0,30.01,WSW,248,8.0,8.0,20,0.00,,SKC,0.00,VWS V14.01,2013-05-18 14:35:00,
2013-05-18 07:41:00,71.0,28.0,30.01,West,270,5.0,5.0,20,0.00,,SKC,0.00,VWS V14.01,2013-05-18 14:41:00,
2013-05-18 07:47:00,72.0,28.8,30.01,West,270,4.0,4.0,20,0.00,,SKC,0.00,VWS V14.01,2013-05-18 14:47:00,
2013-05-18 07:53:00,72.0,27.5,30.01,West,270,6.0,6.0,19,0.00,,SKC,0.00,VWS V14.01,2013-05-18 14:53:00,
2013-05-18 07:58:00,73.0,28.3,30.01,West,270,3.0,4.0,19,0.00,,SKC,0.00,VWS V14.01,2013-05-18 14:58:00,
2013-05-18 08:03:00,73.0,27.0,30.01,WNW,292,7.0,8.0,18,0.00,,SKC,0.00,VWS V14.01,2013-05-18 15:03:00,
2013-05-18 08:08:00,73.0,27.0,30.02,West,270,5.0,6.0,18,0.00,,SKC,0.00,VWS V14.01,2013-05-18 15:08:00,
2013-05-18 08:13:00,73.0,28.3,30.02,SW,225,2.0,3.0,19,0.00,,SKC,0.00,VWS V14.01,2013-05-18 15:13:00,
2013-05-18 08:18:00,74.0,29.2,30.02,SW,225,2.0,2.0,19,0.00,,SKC,0.00,VWS V14.01,2013-05-18 15:18:00,
2013-05-18 08:24:00,74.0,29.2,30.02,WSW,248,5.0,6.0,19,0.00,,SKC,0.00,VWS V14.01,2013-05-18 15:24:00,
2013-05-18 08:30:00,74.0,29.2,30.02,WSW,248,6.0,6.0,19,0.00,,SKC,0.00,VWS V14.01,2013-05-18 15:30:00,
2013-05-18 08:36:00,74.0,29.2,30.02,WSW,248,5.0,5.0,19,0.00,,SKC,0.00,VWS V14.01,2013-05-18 15:36:00,
2013-05-18 08:42:00,75.0,30.0,30.02,WSW,248,1.0,1.0,19,0.00,,SKC,0.00,VWS V14.01,2013-05-18 15:42:00,
2013-05-18 08:47:00,75.0,28.7,30.02,SW,225,7.0,8.0,18,0.00,,SKC,0.00,VWS V14.01,2013-05-18 15:47:00,
2013-05-18 08:52:00,75.0,28.7,30.02,South,180,5.0,5.0,18,0.00,,SKC,0.00,VWS V14.01,2013-05-18 15:52:00,
2013-05-18 08:57:00,76.0,29.5,30.02,South,180,0.0,0.0,18,0.00,,SKC,0.00,VWS V14.01,2013-05-18 15:57:00,
2013-05-18 09:02:00,77.0,30.3,30.02,WSW,248,3.0,3.0,18,0.00,,SKC,0.00,VWS V14.01,2013-05-18 16:02:00,
2013-05-18 09:07:00,77.0,30.3,30.02,South,180,1.0,2.0,18,0.00,,SKC,0.00,VWS V14.01,2013-05-18 16:07:00,
2013-05-18 09:13:00,77.0,30.3,30.01,SW,225,5.0,5.0,18,0.00,,SKC,0.00,VWS V14.01,2013-05-18 16:13:00,
2013-05-18 09:19:00,77.0,30.3,30.01,WSW,248,3.0,3.0,18,0.00,,SKC,0.00,VWS V14.01,2013-05-18 16:19:00,
2013-05-18 09:24:00,78.0,31.1,30.01,South,180,1.0,1.0,18,0.00,,SKC,0.00,VWS V14.01,2013-05-18 16:24:00,
2013-05-18 09:29:00,78.0,29.7,30.01,WSW,248,1.0,1.0,17,0.00,,SKC,0.00,VWS V14.01,2013-05-18 16:29:00,
2013-05-18 09:34:00,78.0,31.1,30.01,SW,225,9.0,10.0,18,0.00,,SKC,0.00,VWS V14.01,2013-05-18 16:34:00,
2013-05-18 09:39:00,78.0,29.7,30.01,South,180,4.0,5.0,17,0.00,,SKC,0.00,VWS V14.01,2013-05-18 16:39:00,
2013-05-18 09:44:00,78.0,29.7,30.01,South,180,6.0,6.0,17,0.00,,SKC,0.00,VWS V14.01,2013-05-18 16:44:00,
2013-05-18 09:50:00,79.0,30.5,30.01,WSW,248,6.0,8.0,17,0.00,,SKC,0.00,VWS V14.01,2013-05-18 16:50:00,
2013-05-18 09:55:00,79.0,30.5,30.01,SSE,158,5.0,5.0,17,0.00,,SKC,0.00,VWS V14.01,2013-05-18 16:55:00,
2013-05-18 10:01:00,80.0,31.3,30.01,SW,225,3.0,3.0,17,0.00,,SKC,0.00,VWS V14.01,2013-05-18 17:01:00,
2013-05-18 10:07:00,80.0,29.8,30.01,WNW,292,2.0,3.0,16,0.00,,SKC,0.00,VWS V14.01,2013-05-18 17:07:00,
2013-05-18 10:12:00,81.0,30.6,30.01,WSW,248,3.0,3.0,16,0.00,,SKC,0.00,VWS V14.01,2013-05-18 17:12:00,
2013-05-18 10:17:00,80.0,29.8,30.01,South,180,6.0,6.0,16,0.00,,SKC,0.00,VWS V14.01,2013-05-18 17:17:00,
2013-05-18 10:23:00,80.0,29.8,30.01,WSW,248,3.0,5.0,16,0.00,,SKC,0.00,VWS V14.01,2013-05-18 17:23:00,
2013-05-18 10:28:00,80.0,29.8,30.01,WSW,248,8.0,11.0,16,0.00,,SKC,0.00,VWS V14.01,2013-05-18 17:28:00,
2013-05-18 10:33:00,80.0,29.8,30.01,WSW,248,5.0,6.0,16,0.00,,SKC,0.00,VWS V14.01,2013-05-18 17:33:00,
2013-05-18 10:38:00,80.0,28.2,30.01,SE,135,4.0,5.0,15,0.00,,SKC,0.00,VWS V14.01,2013-05-18 17:38:00,
2013-05-18 10:43:00,81.0,29.0,30.01,SSE,158,5.0,5.0,15,0.00,,SKC,0.00,VWS V14.01,2013-05-18 17:43:00,
2013-05-18 10:48:00,81.0,29.0,30.01,South,180,3.0,5.0,15,0.00,,SKC,0.00,VWS V14.01,2013-05-18 17:48:00,
2013-05-18 10:53:00,82.0,29.8,30.01,SSW,202,8.0,8.0,15,0.00,,SKC,0.00,VWS V14.01,2013-05-18 17:53:00,
2013-05-18 10:59:00,82.0,28.1,30.01,SW,225,5.0,5.0,14,0.00,,SKC,0.00,VWS V14.01,2013-05-18 17:59:00,
2013-05-18 11:04:00,83.0,28.9,30.01,SE,135,8.0,8.0,14,0.00,,SKC,0.00,VWS V14.01,2013-05-18 18:04:00,
2013-05-18 11:09:00,83.0,28.9,30.01,SSW,202,2.0,4.0,14,0.00,,SKC,0.00,VWS V14.01,2013-05-18 18:09:00,
2013-05-18 11:14:00,83.0,28.9,30.01,WNW,292,7.0,8.0,14,0.00,,SKC,0.00,VWS V14.01,2013-05-18 18:14:00,
2013-05-18 11:19:00,84.0,29.7,30.01,SW,225,6.0,6.0,14,0.00,,SKC,0.00,VWS V14.01,2013-05-18 18:19:00,
2013-05-18 11:24:00,83.0,28.9,30.01,South,180,5.0,6.0,14,0.00,,SKC,0.00,VWS V14.01,2013-05-18 18:24:00,
2013-05-18 11:29:00,84.0,29.7,30.00,South,180,3.0,3.0,14,0.00,,SKC,0.00,VWS V14.01,2013-05-18 18:29:00,
2013-05-18 11:34:00,84.0,27.9,30.00,ESE,112,4.0,4.0,13,0.00,,SKC,0.00,VWS V14.01,2013-05-18 18:34:00,
2013-05-18 11:39:00,84.0,27.9,30.00,ESE,112,5.0,5.0,13,0.00,,SKC,0.00,VWS V14.01,2013-05-18 18:39:00,
2013-05-18 11:44:00,84.0,29.7,30.00,South,180,2.0,4.0,14,0.00,,SKC,0.00,VWS V14.01,2013-05-18 18:44:00,
2013-05-18 11:49:00,84.0,29.7,30.00,SW,225,8.0,8.0,14,0.00,,SKC,0.00,VWS V14.01,2013-05-18 18:49:00,
2013-05-18 11:54:00,84.0,29.7,30.00,SSE,158,2.0,2.0,14,0.00,,SKC,0.00,VWS V14.01,2013-05-18 18:54:00,
2013-05-18 11:59:00,84.0,27.9,30.00,SSE,158,4.0,5.0,13,0.00,,SKC,0.00,VWS V14.01,2013-05-18 18:59:00,
2013-05-18 12:04:00,86.0,29.5,29.99,SE,135,6.0,6.0,13,0.00,,SKC,0.00,VWS V14.01,2013-05-18 19:04:00,
2013-05-18 12:09:00,86.0,29.5,29.99,South,180,5.0,6.0,13,0.00,,SKC,0.00,VWS V14.01,2013-05-18 19:09:00,
2013-05-18 12:14:00,87.0,28.3,29.99,SSW,202,3.0,3.0,12,0.00,,SKC,0.00,VWS V14.01,2013-05-18 19:14:00,
2013-05-18 12:19:00,86.0,27.5,29.99,SW,225,10.0,10.0,12,0.00,,SKC,0.00,VWS V14.01,2013-05-18 19:19:00,
2013-05-18 12:24:00,86.0,29.5,29.99,SE,135,1.0,3.0,13,0.00,,SKC,0.00,VWS V14.01,2013-05-18 19:24:00,
2013-05-18 12:29:00,86.0,27.5,29.99,SW,225,6.0,9.0,12,0.00,,SKC,0.00,VWS V14.01,2013-05-18 19:29:00,
2013-05-18 12:34:00,84.0,26.0,29.99,West,270,7.0,7.0,12,0.00,,SKC,0.00,VWS V14.01,2013-05-18 19:34:00,
2013-05-18 12:39:00,86.0,27.5,29.99,SE,135,2.0,3.0,12,0.00,,SKC,0.00,VWS V14.01,2013-05-18 19:39:00,
2013-05-18 12:44:00,87.0,28.3,29.99,ESE,112,1.0,2.0,12,0.00,,SKC,0.00,VWS V14.01,2013-05-18 19:44:00,
2013-05-18 12:49:00,87.0,28.3,29.98,SSE,158,3.0,3.0,12,0.00,,SKC,0.00,VWS V14.01,2013-05-18 19:49:00,
2013-05-18 12:54:00,87.0,28.3,29.98,SW,225,0.0,1.0,12,0.00,,SKC,0.00,VWS V14.01,2013-05-18 19:54:00,
2013-05-18 12:59:00,88.0,29.1,29.98,SSE,158,3.0,3.0,12,0.00,,SKC,0.00,VWS V14.01,2013-05-18 19:59:00,
2013-05-18 13:04:00,89.0,29.9,29.98,SSE,158,1.0,1.0,12,0.00,,SKC,0.00,VWS V14.01,2013-05-18 20:04:00,
2013-05-18 13:10:00,85.0,26.8,29.97,WNW,292,11.0,11.0,12,0.00,,SKC,0.00,VWS V14.01,2013-05-18 20:10:00,
2013-05-18 13:15:00,86.0,27.5,29.97,WNW,292,1.0,2.0,12,0.00,,SKC,0.00,VWS V14.01,2013-05-18 20:15:00,
2013-05-18 13:20:00,87.0,28.3,29.97,WSW,248,6.0,6.0,12,0.00,,SKC,0.00,VWS V14.01,2013-05-18 20:20:00,
2013-05-18 13:25:00,86.0,27.5,29.97,WSW,248,5.0,9.0,12,0.00,,SKC,0.00,VWS V14.01,2013-05-18 20:25:00,
2013-05-18 13:30:00,87.0,28.3,29.97,SSE,158,1.0,2.0,12,0.00,,SKC,0.00,VWS V14.01,2013-05-18 20:30:00,
2013-05-18 13:35:00,89.0,29.9,29.97,WSW,248,11.0,11.0,12,0.00,,SKC,0.00,VWS V14.01,2013-05-18 20:35:00,
2013-05-18 13:40:00,87.0,28.3,29.97,SW,225,6.0,7.0,12,0.00,,SKC,0.00,VWS V14.01,2013-05-18 20:40:00,
2013-05-18 13:45:00,89.0,27.7,29.97,SSE,158,3.0,3.0,11,0.00,,SKC,0.00,VWS V14.01,2013-05-18 20:45:00,
2013-05-18 13:50:00,88.0,29.1,29.97,West,270,10.0,10.0,12,0.00,,SKC,0.00,VWS V14.01,2013-05-18 20:50:00,
2013-05-18 13:55:00,88.0,29.1,29.96,ENE,68,5.0,6.0,12,0.00,,SKC,0.00,VWS V14.01,2013-05-18 20:55:00,
2013-05-18 14:00:00,88.0,29.1,29.97,SSW,202,5.0,7.0,12,0.00,,SKC,0.00,VWS V14.01,2013-05-18 21:00:00,
2013-05-18 14:05:00,87.0,28.3,29.96,WSW,248,14.0,14.0,12,0.00,,SKC,0.00,VWS V14.01,2013-05-18 21:05:00,
2013-05-18 14:10:00,87.0,28.3,29.96,WSW,248,8.0,8.0,12,0.00,,SKC,0.00,VWS V14.01,2013-05-18 21:10:00,
2013-05-18 14:15:00,87.0,30.3,29.96,SW,225,8.0,13.0,13,0.00,,SKC,0.00,VWS V14.01,2013-05-18 21:15:00,
2013-05-18 14:20:00,88.0,31.0,29.96,SW,225,11.0,11.0,13,0.00,,SKC,0.00,VWS V14.01,2013-05-18 21:20:00,
2013-05-18 14:25:00,88.0,31.0,29.96,SW,225,13.0,16.0,13,0.00,,SKC,0.00,VWS V14.01,2013-05-18 21:25:00,
2013-05-18 14:30:00,87.0,30.3,29.96,WSW,248,11.0,16.0,13,0.00,,SKC,0.00,VWS V14.01,2013-05-18 21:30:00,
2013-05-18 14:35:00,87.0,28.3,29.96,WSW,248,12.0,12.0,12,0.00,,SKC,0.00,VWS V14.01,2013-05-18 21:35:00,
2013-05-18 14:40:00,88.0,29.1,29.96,South,180,4.0,6.0,12,0.00,,SKC,0.00,VWS V14.01,2013-05-18 21:40:00,
2013-05-18 14:45:00,89.0,27.7,29.95,SSE,158,6.0,8.0,11,0.00,,SKC,0.00,VWS V14.01,2013-05-18 21:45:00,
2013-05-18 14:50:00,90.0,28.5,29.95,SE,135,5.0,6.0,11,0.00,,SKC,0.00,VWS V14.01,2013-05-18 21:50:00,
2013-05-18 14:55:00,89.0,27.7,29.95,NNW,338,4.0,6.0,11,0.00,,SKC,0.00,VWS V14.01,2013-05-18 21:55:00,
2013-05-18 15:00:00,89.0,29.9,29.95,West,270,7.0,8.0,12,0.00,,SKC,0.00,VWS V14.01,2013-05-18 22:00:00,
2013-05-18 15:05:00,89.0,29.9,29.95,WSW,248,16.0,17.0,12,0.00,,SKC,0.00,VWS V14.01,2013-05-18 22:05:00,
2013-05-18 15:10:00,89.0,27.7,29.94,WSW,248,7.0,7.0,11,0.00,,SKC,0.00,VWS V14.01,2013-05-18 22:10:00,
2013-05-18 15:15:00,89.0,29.9,29.94,SW,225,7.0,7.0,12,0.00,,SKC,0.00,VWS V14.01,2013-05-18 22:15:00,
2013-05-18 15:20:00,89.0,29.9,29.94,SW,225,13.0,13.0,12,0.00,,SKC,0.00,VWS V14.01,2013-05-18 22:20:00,
2013-05-18 15:25:00,89.0,29.9,29.94,WSW,248,7.0,7.0,12,0.00,,SKC,0.00,VWS V14.01,2013-05-18 22:25:00,
2013-05-18 15:30:00,88.0,29.1,29.94,West,270,7.0,9.0,12,0.00,,SKC,0.00,VWS V14.01,2013-05-18 22:30:00,
2013-05-18 15:35:00,89.0,29.9,29.94,NNE,22,1.0,1.0,12,0.00,,SKC,0.00,VWS V14.01,2013-05-18 22:35:00,
2013-05-18 15:40:00,89.0,29.9,29.94,SW,225,7.0,7.0,12,0.00,,SKC,0.00,VWS V14.01,2013-05-18 22:40:00,
2013-05-18 15:45:00,90.0,30.6,29.94,WSW,248,2.0,4.0,12,0.00,,SKC,0.00,VWS V14.01,2013-05-18 22:45:00,
2013-05-18 15:50:00,89.0,31.8,29.93,WSW,248,9.0,11.0,13,0.00,,SKC,0.00,VWS V14.01,2013-05-18 22:50:00,
2013-05-18 15:55:00,89.0,31.8,29.93,SW,225,5.0,6.0,13,0.00,,SKC,0.00,VWS V14.01,2013-05-18 22:55:00,
2013-05-18 16:00:00,88.0,29.1,29.93,WSW,248,8.0,10.0,12,0.00,,SKC,0.00,VWS V14.01,2013-05-18 23:00:00,
2013-05-18 16:05:00,89.0,31.8,29.93,WSW,248,15.0,15.0,13,0.00,,SKC,0.00,VWS V14.01,2013-05-18 23:05:00,
2013-05-18 16:10:00,88.0,31.0,29.93,West,270,12.0,12.0,13,0.00,,SKC,0.00,VWS V14.01,2013-05-18 23:10:00,
2013-05-18 16:15:00,87.0,30.3,29.93,WNW,292,11.0,16.0,13,0.00,,SKC,0.00,VWS V14.01,2013-05-18 23:15:00,
2013-05-18 16:20:00,88.0,31.0,29.93,SSE,158,8.0,10.0,13,0.00,,SKC,0.00,VWS V14.01,2013-05-18 23:20:00,
2013-05-18 16:25:00,87.0,30.3,29.93,West,270,10.0,10.0,13,0.00,,SKC,0.00,VWS V14.01,2013-05-18 23:25:00,
2013-05-18 16:30:00,87.0,30.3,29.93,WNW,292,16.0,16.0,13,0.00,,SKC,0.00,VWS V14.01,2013-05-18 23:30:00,
2013-05-18 16:35:00,87.0,30.3,29.93,SSE,158,7.0,8.0,13,0.00,,SKC,0.00,VWS V14.01,2013-05-18 23:35:00,
2013-05-18 16:40:00,87.0,30.3,29.93,WNW,292,11.0,15.0,13,0.00,,SKC,0.00,VWS V14.01,2013-05-18 23:40:00,
2013-05-18 16:45:00,87.0,30.3,29.93,WSW,248,11.0,14.0,13,0.00,,SKC,0.00,VWS V14.01,2013-05-18 23:45:00,
2013-05-18 16:50:00,88.0,31.0,29.93,WSW,248,10.0,10.0,13,0.00,,SKC,0.00,VWS V14.01,2013-05-18 23:50:00,
2013-05-18 16:55:00,88.0,32.9,29.93,WSW,248,8.0,11.0,14,0.00,,SKC,0.00,VWS V14.01,2013-05-18 23:55:00,
2013-05-18 17:00:00,87.0,30.3,29.92,WSW,248,13.0,18.0,13,0.00,,SKC,0.00,VWS V14.01,2013-05-19 00:00:00,
2013-05-18 17:05:00,87.0,32.1,29.93,WSW,248,8.0,11.0,14,0.00,,SKC,0.00,VWS V14.01,2013-05-19 00:05:00,
2013-05-18 17:10:00,87.0,32.1,29.93,SW,225,12.0,12.0,14,0.00,,SKC,0.00,VWS V14.01,2013-05-19 00:10:00,
2013-05-18 17:15:00,87.0,32.1,29.93,SW,225,10.0,10.0,14,0.00,,SKC,0.00,VWS V14.01,2013-05-19 00:15:00,
2013-05-18 17:20:00,87.0,32.1,29.93,NW,315,13.0,13.0,14,0.00,,SKC,0.00,VWS V14.01,2013-05-19 00:20:00,
2013-05-18 17:25:00,86.0,31.3,29.93,West,270,13.0,14.0,14,0.00,,SKC,0.00,VWS V14.01,2013-05-19 00:25:00,
2013-05-18 17:30:00,86.0,33.0,29.93,SW,225,8.0,10.0,15,0.00,,SKC,0.00,VWS V14.01,2013-05-19 00:30:00,
2013-05-18 17:35:00,86.0,33.0,29.92,WSW,248,9.0,10.0,15,0.00,,SKC,0.00,VWS V14.01,2013-05-19 00:35:00,
2013-05-18 17:40:00,86.0,31.3,29.93,WSW,248,14.0,14.0,14,0.00,,SKC,0.00,VWS V14.01,2013-05-19 00:40:00,
2013-05-18 17:45:00,86.0,31.3,29.92,WNW,292,12.0,14.0,14,0.00,,SKC,0.00,VWS V14.01,2013-05-19 00:45:00,
2013-05-18 17:50:00,86.0,33.0,29.93,WNW,292,11.0,14.0,15,0.00,,SKC,0.00,VWS V14.01,2013-05-19 00:50:00,
2013-05-18 17:55:00,85.0,32.2,29.93,WSW,248,7.0,8.0,15,0.00,,SKC,0.00,VWS V14.01,2013-05-19 00:55:00,
2013-05-18 18:00:00,85.0,30.5,29.93,WSW,248,13.0,14.0,14,0.00,,SKC,0.00,VWS V14.01,2013-05-19 01:00:00,
2013-05-18 18:05:00,85.0,30.5,29.93,SW,225,11.0,12.0,14,0.00,,SKC,0.00,VWS V14.01,2013-05-19 01:05:00,
2013-05-18 18:10:00,85.0,30.5,29.93,SW,225,8.0,8.0,14,0.00,,SKC,0.00,VWS V14.01,2013-05-19 01:10:00,
2013-05-18 18:15:00,85.0,30.5,29.93,WSW,248,13.0,13.0,14,0.00,,SKC,0.00,VWS V14.01,2013-05-19 01:15:00,
2013-05-18 18:20:00,85.0,30.5,29.93,West,270,9.0,10.0,14,0.00,,SKC,0.00,VWS V14.01,2013-05-19 01:20:00,
2013-05-18 18:25:00,85.0,30.5,29.93,West,270,12.0,12.0,14,0.00,,SKC,0.00,VWS V14.01,2013-05-19 01:25:00,
2013-05-18 18:30:00,84.0,31.4,29.93,West,270,8.0,8.0,15,0.00,,SKC,0.00,VWS V14.01,2013-05-19 01:30:00,
2013-05-18 18:35:00,84.0,31.4,29.93,SW,225,9.0,11.0,15,0.00,,SKC,0.00,VWS V14.01,2013-05-19 01:35:00,
2013-05-18 18:40:00,84.0,29.7,29.93,WSW,248,8.0,10.0,14,0.00,,SKC,0.00,VWS V14.01,2013-05-19 01:40:00,
2013-05-18 18:45:00,84.0,31.4,29.93,WSW,248,6.0,9.0,15,0.00,,SKC,0.00,VWS V14.01,2013-05-19 01:45:00,
2013-05-18 18:50:00,83.0,32.2,29.93,SW,225,8.0,11.0,16,0.00,,SKC,0.00,VWS V14.01,2013-05-19 01:50:00,
2013-05-18 18:55:00,83.0,32.2,29.93,SW,225,10.0,11.0,16,0.00,,SKC,0.00,VWS V14.01,2013-05-19 01:55:00,
2013-05-18 19:00:00,83.0,32.2,29.94,NW,315,5.0,7.0,16,0.00,,SKC,0.00,VWS V14.01,2013-05-19 02:00:00,
2013-05-18 19:05:00,82.0,31.4,29.94,WSW,248,10.0,11.0,16,0.00,,SKC,0.00,VWS V14.01,2013-05-19 02:05:00,
2013-05-18 19:10:00,82.0,31.4,29.94,SW,225,8.0,8.0,16,0.00,,SKC,0.00,VWS V14.01,2013-05-19 02:10:00,
2013-05-18 19:15:00,82.0,31.4,29.94,WSW,248,6.0,7.0,16,0.00,,SKC,0.00,VWS V14.01,2013-05-19 02:15:00,
2013-05-18 19:20:00,82.0,31.4,29.94,SW,225,5.0,6.0,16,0.00,,SKC,0.00,VWS V14.01,2013-05-19 02:20:00,
2013-05-18 19:25:00,81.0,30.6,29.94,SW,225,6.0,7.0,16,0.00,,SKC,0.00,VWS V14.01,2013-05-19 02:25:00,
2013-05-18 19:30:00,81.0,30.6,29.94,WNW,292,5.0,6.0,16,0.00,,SKC,0.00,VWS V14.01,2013-05-19 02:30:00,
2013-05-18 19:35:00,81.0,32.1,29.94,WSW,248,5.0,6.0,17,0.00,,SKC,0.00,VWS V14.01,2013-05-19 02:35:00,
2013-05-18 19:40:00,80.0,31.3,29.94,WSW,248,6.0,8.0,17,0.00,,SKC,0.00,VWS V14.01,2013-05-19 02:40:00,
2013-05-18 19:45:00,80.0,31.3,29.94,WSW,248,6.0,6.0,17,0.00,,SKC,0.00,VWS V14.01,2013-05-19 02:45:00,
2013-05-18 19:50:00,80.0,31.3,29.94,SSW,202,5.0,6.0,17,0.00,,SKC,0.00,VWS V14.01,2013-05-19 02:50:00,
2013-05-18 19:55:00,80.0,31.3,29.94,SW,225,4.0,5.0,17,0.00,,SKC,0.00,VWS V14.01,2013-05-19 02:55:00,
2013-05-18 20:00:00,79.0,30.5,29.94,SW,225,6.0,7.0,17,0.00,,SKC,0.00,VWS V14.01,2013-05-19 03:00:00,
2013-05-18 20:05:00,79.0,31.9,29.95,West,270,3.0,4.0,18,0.00,,SKC,0.00,VWS V14.01,2013-05-19 03:05:00,
2013-05-18 20:10:00,79.0,31.9,29.95,WSW,248,6.0,6.0,18,0.00,,SKC,0.00,VWS V14.01,2013-05-19 03:10:00,
2013-05-18 20:15:00,79.0,31.9,29.95,West,270,6.0,7.0,18,0.00,,SKC,0.00,VWS V14.01,2013-05-19 03:15:00,
2013-05-18 20:20:00,79.0,31.9,29.95,WSW,248,6.0,8.0,18,0.00,,SKC,0.00,VWS V14.01,2013-05-19 03:20:00,
2013-05-18 20:25:00,79.0,31.9,29.95,WSW,248,3.0,4.0,18,0.00,,SKC,0.00,VWS V14.01,2013-05-19 03:25:00,
2013-05-18 20:30:00,79.0,33.3,29.95,SW,225,5.0,5.0,19,0.00,,SKC,0.00,VWS V14.01,2013-05-19 03:30:00,
2013-05-18 20:35:00,78.0,32.4,29.95,WSW,248,3.0,4.0,19,0.00,,SKC,0.00,VWS V14.01,2013-05-19 03:35:00,
2013-05-18 20:40:00,78.0,32.4,29.95,WSW,248,4.0,5.0,19,0.00,,SKC,0.00,VWS V14.01,2013-05-19 03:40:00,
2013-05-18 20:45:00,78.0,32.4,29.96,WSW,248,3.0,3.0,19,0.00,,SKC,0.00,VWS V14.01,2013-05-19 03:45:00,
2013-05-18 20:50:00,77.0,31.6,29.96,West,270,3.0,3.0,19,0.00,,SKC,0.00,VWS V14.01,2013-05-19 03:50:00,
2013-05-18 20:55:00,77.0,31.6,29.96,WNW,292,2.0,2.0,19,0.00,,SKC,0.00,VWS V14.01,2013-05-19 03:55:00,
2013-05-18 21:01:00,77.0,32.9,29.96,WSW,248,3.0,4.0,20,0.00,,SKC,0.00,VWS V14.01,2013-05-19 04:01:00,
2013-05-18 21:02:00,77.0,32.9,29.96,West,270,5.0,6.0,20,0.00,,SKC,0.00,VWS V14.01,2013-05-19 04:02:00,
2013-05-18 21:03:00,77.0,32.9,29.96,West,270,3.0,4.0,20,0.00,,SKC,0.00,VWS V14.01,2013-05-19 04:03:00,
2013-05-18 21:04:00,77.0,32.9,29.96,West,270,3.0,4.0,20,0.00,,SKC,0.00,VWS V14.01,2013-05-19 04:04:00,
2013-05-18 21:07:00,76.0,32.1,29.97,WNW,292,5.0,6.0,20,0.00,,SKC,0.00,VWS V14.01,2013-05-19 04:07:00,
2013-05-18 21:12:00,76.0,33.3,29.97,West,270,6.0,6.0,21,0.00,,SKC,0.00,VWS V14.01,2013-05-19 04:12:00,
2013-05-18 21:18:00,76.0,32.1,29.97,West,270,5.0,6.0,20,0.00,,SKC,0.00,VWS V14.01,2013-05-19 04:18:00,
2013-05-18 21:23:00,76.0,32.1,29.97,West,270,4.0,5.0,20,0.00,,SKC,0.00,VWS V14.01,2013-05-19 04:23:00,
2013-05-18 21:28:00,76.0,33.3,29.97,WNW,292,5.0,6.0,21,0.00,,SKC,0.00,VWS V14.01,2013-05-19 04:28:00,
2013-05-18 21:33:00,76.0,33.3,29.97,West,270,3.0,5.0,21,0.00,,SKC,0.00,VWS V14.01,2013-05-19 04:33:00,
2013-05-18 21:38:00,76.0,33.3,29.98,West,270,5.0,6.0,21,0.00,,SKC,0.00,VWS V14.01,2013-05-19 04:38:00,
2013-05-18 21:43:00,75.0,33.6,29.98,WSW,248,2.0,3.0,22,0.00,,SKC,0.00,VWS V14.01,2013-05-19 04:43:00,
2013-05-18 21:48:00,75.0,33.6,29.98,WNW,292,3.0,3.0,22,0.00,,SKC,0.00,VWS V14.01,2013-05-19 04:48:00,
2013-05-18 21:53:00,75.0,33.6,29.98,WNW,292,0.0,0.0,22,0.00,,SKC,0.00,VWS V14.01,2013-05-19 04:53:00,
2013-05-18 21:58:00,75.0,33.6,29.98,SSW,202,0.0,0.0,22,0.00,,SKC,0.00,VWS V14.01,2013-05-19 04:58:00,
2013-05-18 22:03:00,75.0,33.6,29.98,SSW,202,0.0,0.0,22,0.00,,SKC,0.00,VWS V14.01,2013-05-19 05:03:00,
2013-05-18 22:08:00,74.0,33.9,29.98,SSW,202,0.0,0.0,23,0.00,,SKC,0.00,VWS V14.01,2013-05-19 05:08:00,
2013-05-18 22:13:00,73.0,34.1,29.98,ENE,68,0.0,0.0,24,0.00,,SKC,0.00,VWS V14.01,2013-05-19 05:13:00,
2013-05-18 22:18:00,73.0,34.1,29.98,ENE,68,0.0,0.0,24,0.00,,SKC,0.00,VWS V14.01,2013-05-19 05:18:00,
2013-05-18 22:23:00,73.0,34.1,29.98,ENE,68,0.0,0.0,24,0.00,,SKC,0.00,VWS V14.01,2013-05-19 05:23:00,
2013-05-18 22:28:00,73.0,34.1,29.98,ENE,68,0.0,0.0,24,0.00,,SKC,0.00,VWS V14.01,2013-05-19 05:28:00,
2013-05-18 22:33:00,72.0,33.3,29.98,ENE,68,0.0,0.0,24,0.00,,SKC,0.00,VWS V14.01,2013-05-19 05:33:00,
2013-05-18 22:38:00,72.0,33.3,29.98,ENE,68,0.0,0.0,24,0.00,,SKC,0.00,VWS V14.01,2013-05-19 05:38:00,
2013-05-18 22:43:00,72.0,34.3,29.98,ENE,68,0.0,0.0,25,0.00,,SKC,0.00,VWS V14.01,2013-05-19 05:43:00,
2013-05-18 22:48:00,71.0,33.4,29.98,ENE,68,0.0,0.0,25,0.00,,SKC,0.00,VWS V14.01,2013-05-19 05:48:00,
2013-05-18 22:53:00,71.0,34.4,29.98,ENE,68,0.0,0.0,26,0.00,,SKC,0.00,VWS V14.01,2013-05-19 05:53:00,
2013-05-18 22:58:00,71.0,34.4,29.98,North,0,0.0,0.0,26,0.00,,SKC,0.00,VWS V14.01,2013-05-19 05:58:00,
2013-05-18 23:03:00,71.0,34.4,29.98,North,0,0.0,0.0,26,0.00,,SKC,0.00,VWS V14.01,2013-05-19 06:03:00,
2013-05-18 23:08:00,71.0,34.4,29.98,West,270,0.0,0.0,26,0.00,,SKC,0.00,VWS V14.01,2013-05-19 06:08:00,
2013-05-18 23:13:00,71.0,34.4,29.98,WSW,248,4.0,5.0,26,0.00,,SKC,0.00,VWS V14.01,2013-05-19 06:13:00,
2013-05-18 23:18:00,72.0,35.3,29.98,WSW,248,3.0,3.0,26,0.00,,SKC,0.00,VWS V14.01,2013-05-19 06:18:00,
2013-05-18 23:23:00,72.0,35.3,29.98,West,270,1.0,2.0,26,0.00,,SKC,0.00,VWS V14.01,2013-05-19 06:23:00,
2013-05-18 23:28:00,72.0,35.3,29.98,West,270,0.0,0.0,26,0.00,,SKC,0.00,VWS V14.01,2013-05-19 06:28:00,
2013-05-18 23:33:00,72.0,35.3,29.98,WSW,248,3.0,3.0,26,0.00,,SKC,0.00,VWS V14.01,2013-05-19 06:33:00,
2013-05-18 23:38:00,72.0,35.3,29.98,SW,225,1.0,2.0,26,0.00,,SKC,0.00,VWS V14.01,2013-05-19 06:38:00,
2013-05-18 23:43:00,72.0,36.2,29.98,West,270,4.0,4.0,27,0.00,,SKC,0.00,VWS V14.01,2013-05-19 06:43:00,
2013-05-18 23:48:00,72.0,37.1,29.98,West,270,4.0,5.0,28,0.00,,SKC,0.00,VWS V14.01,2013-05-19 06:48:00,
2013-05-18 23:53:00,71.0,37.2,29.98,WNW,292,3.0,3.0,29,0.00,,SKC,0.00,VWS V14.01,2013-05-19 06:53:00,
2013-05-18 23:58:00,71.0,38.0,29.98,WNW,292,2.0,2.0,30,0.00,,SKC,0.00,VWS V14.01,2013-05-19 06:58:00,